createdAt,value
2019-02-26T00:01:01.142Z,101624.53
2019-02-26T00:03:30.880Z,101633.73
2019-02-26T00:05:59.478Z,101633.67
2019-02-26T00:08:31.228Z,101630.55
2019-02-26T00:11:01.166Z,101620.86
2019-02-26T00:13:29.500Z,101616.04
2019-02-26T00:16:03.129Z,101612.08
2019-02-26T00:18:28.667Z,101609.08
2019-02-26T00:20:58.573Z,101601.92
2019-02-26T00:23:28.041Z,101603.16
2019-02-26T00:25:56.139Z,101598.81
2019-02-26T00:28:23.933Z,101600.33
2019-02-26T00:30:51.677Z,101593.06
2019-02-26T00:33:22.177Z,101590.52
2019-02-26T00:35:50.268Z,101590.79
2019-02-26T00:38:19.883Z,101575.52
2019-02-26T00:40:47.998Z,101579.09
2019-02-26T00:43:15.899Z,101574.39
2019-02-26T00:45:43.645Z,101565.85
2019-02-26T00:48:13.659Z,101563.12
2019-02-26T00:50:41.498Z,101549.53
2019-02-26T00:53:09.290Z,101546.70
2019-02-26T00:55:39.690Z,101535.89
2019-02-26T00:58:08.530Z,101537.67
2019-02-26T01:00:37.493Z,101537.12
2019-02-26T01:03:05.997Z,101540.68
2019-02-26T01:05:36.252Z,101544.84
2019-02-26T01:08:06.147Z,101550.11
2019-02-26T01:10:36.739Z,101542.57
2019-02-26T01:13:05.140Z,101533.91
2019-02-26T01:15:34.789Z,101526.17
2019-02-26T01:18:03.194Z,101533.06
2019-02-26T01:20:32.470Z,101529.36
2019-02-26T01:23:00.334Z,101526.00
2019-02-26T01:25:28.070Z,101517.34
2019-02-26T01:27:57.964Z,101509.04
2019-02-26T01:30:27.034Z,101504.31
2019-02-26T01:32:57.537Z,101503.77
2019-02-26T01:35:26.159Z,101504.50
2019-02-26T01:37:55.784Z,101511.67
2019-02-26T01:40:25.809Z,101510.16
2019-02-26T01:42:57.378Z,101502.81
2019-02-26T01:45:25.003Z,101500.92
2019-02-26T01:47:53.648Z,101500.66
2019-02-26T01:50:22.995Z,101486.16
2019-02-26T01:52:51.876Z,101491.27
2019-02-26T01:55:22.834Z,101487.77
2019-02-26T01:57:50.698Z,101485.70
2019-02-26T02:00:18.828Z,101475.50
2019-02-26T02:02:46.788Z,101466.67
2019-02-26T02:05:14.881Z,101468.02
2019-02-26T02:07:44.839Z,101468.78
2019-02-26T02:10:14.119Z,101473.23
2019-02-26T02:12:42.083Z,101472.19
2019-02-26T02:15:14.942Z,101475.00
2019-02-26T02:17:42.711Z,101473.52
2019-02-26T02:20:13.086Z,101464.45
2019-02-26T02:22:42.593Z,101465.03
2019-02-26T02:25:11.904Z,101463.17
2019-02-26T02:27:39.768Z,101456.31
2019-02-26T02:30:18.583Z,101444.14
2019-02-26T02:32:42.724Z,101443.31
2019-02-26T02:35:12.609Z,101452.91
2019-02-26T02:37:40.555Z,101444.54
2019-02-26T02:40:09.081Z,101434.91
2019-02-26T02:42:37.726Z,101425.11
2019-02-26T02:45:10.695Z,101434.34
2019-02-26T02:47:38.806Z,101421.48
2019-02-26T02:50:09.225Z,101412.42
2019-02-26T02:52:38.159Z,101416.83
2019-02-26T02:55:06.880Z,101425.89
2019-02-26T02:57:36.203Z,101413.08
2019-02-26T03:00:08.387Z,101416.78
2019-02-26T03:02:40.538Z,101432.11
2019-02-26T03:05:06.178Z,101428.06
2019-02-26T03:07:33.903Z,101435.09
2019-02-26T03:10:06.227Z,101437.06
2019-02-26T03:12:33.545Z,101431.96
2019-02-26T03:15:02.264Z,101427.63
2019-02-26T03:17:31.365Z,101417.71
2019-02-26T03:20:01.968Z,101412.73
2019-02-26T03:22:30.370Z,101419.20
2019-02-26T03:24:59.604Z,101418.49
2019-02-26T03:27:31.161Z,101417.05
2019-02-26T03:29:59.116Z,101405.10
2019-02-26T03:32:27.512Z,101402.09
2019-02-26T03:34:55.433Z,101406.80
2019-02-26T03:37:23.943Z,101403.82
2019-02-26T03:39:55.209Z,101404.36
2019-02-26T03:42:22.936Z,101408.23
2019-02-26T03:44:50.732Z,101406.05
2019-02-26T03:47:19.255Z,101394.77
2019-02-26T03:49:47.371Z,101400.57
2019-02-26T03:52:15.873Z,101400.32
2019-02-26T03:54:45.935Z,101397.77
2019-02-26T03:57:14.226Z,101389.03
2019-02-26T03:59:43.432Z,101377.79
2019-02-26T04:02:12.614Z,101382.61
2019-02-26T04:04:41.514Z,101390.60
2019-02-26T04:07:10.707Z,101390.72
2019-02-26T04:09:41.867Z,101385.49
2019-02-26T04:12:11.192Z,101367.61
2019-02-26T04:14:38.363Z,101374.20
2019-02-26T04:17:08.876Z,101362.34
2019-02-26T04:19:36.233Z,101366.05
2019-02-26T04:22:32.039Z,101370.16
2019-02-26T04:25:08.233Z,101368.80
2019-02-26T04:28:13.951Z,101389.98
2019-02-26T04:31:04.641Z,101380.76
2019-02-26T04:34:01.803Z,101382.45
2019-02-26T04:36:49.731Z,101391.84
2019-02-26T04:40:20.378Z,101379.81
2019-02-26T04:43:27.736Z,101347.22
2019-02-26T04:46:41.693Z,101346.39
2019-02-26T04:49:09.723Z,101358.72
2019-02-26T04:51:41.522Z,101360.61
2019-02-26T04:54:07.362Z,101351.87
2019-02-26T04:56:37.061Z,101346.84
2019-02-26T04:59:07.026Z,101339.05
2019-02-26T05:01:35.123Z,101333.30
2019-02-26T05:04:03.278Z,101331.39
2019-02-26T05:06:31.049Z,101333.50
2019-02-26T05:09:00.248Z,101332.43
2019-02-26T05:11:32.664Z,101342.69
2019-02-26T05:13:58.304Z,101353.94
2019-02-26T05:16:28.896Z,101371.44
2019-02-26T05:18:58.369Z,101375.72
2019-02-26T05:21:27.090Z,101374.86
2019-02-26T05:23:57.498Z,101375.61
2019-02-26T05:26:25.234Z,101393.54
2019-02-26T05:28:53.013Z,101400.91
2019-02-26T05:31:21.026Z,101399.24
2019-02-26T05:33:50.131Z,101400.38
2019-02-26T05:36:18.493Z,101400.41
2019-02-26T05:38:46.226Z,101401.90
2019-02-26T05:41:14.027Z,101399.72
2019-02-26T05:43:42.309Z,101409.34
2019-02-26T05:46:10.149Z,101401.75
2019-02-26T05:48:39.966Z,101403.63
2019-02-26T05:51:09.346Z,101410.75
2019-02-26T05:53:37.594Z,101408.48
2019-02-26T05:56:05.518Z,101415.29
2019-02-26T05:58:35.516Z,101418.38
2019-02-26T06:01:03.192Z,101413.60
2019-02-26T06:03:31.054Z,101422.64
2019-02-26T06:06:00.470Z,101449.19
2019-02-26T06:08:30.228Z,101459.90
2019-02-26T06:10:58.435Z,101463.11
2019-02-26T06:13:28.923Z,101473.83
2019-02-26T06:15:58.563Z,101466.30
2019-02-26T06:18:25.637Z,101485.30
2019-02-26T06:20:55.483Z,101492.16
2019-02-26T06:23:25.314Z,101504.95
2019-02-26T06:25:55.248Z,101505.88
2019-02-26T06:28:22.772Z,101501.47
2019-02-26T06:30:58.047Z,101506.56
2019-02-26T06:33:26.016Z,101498.47
2019-02-26T06:35:54.916Z,101486.51
2019-02-26T06:38:25.861Z,101491.88
2019-02-26T06:40:53.948Z,101489.34
2019-02-26T06:43:21.835Z,101494.52
2019-02-26T06:45:49.636Z,101489.81
2019-02-26T06:48:20.176Z,101478.78
2019-02-26T06:50:48.045Z,101480.97
2019-02-26T06:53:16.667Z,101473.63
2019-02-26T06:55:45.684Z,101465.99
2019-02-26T06:58:24.171Z,101461.59
2019-02-26T07:00:55.229Z,101469.19
2019-02-26T07:03:24.159Z,101472.30
2019-02-26T07:05:52.319Z,101472.38
2019-02-26T07:08:21.965Z,101481.14
2019-02-26T07:10:50.500Z,101484.42
2019-02-26T07:13:18.257Z,101473.05
2019-02-26T07:15:46.285Z,101484.05
2019-02-26T07:18:17.053Z,101492.33
2019-02-26T07:20:46.784Z,101507.87
2019-02-26T07:23:15.445Z,101499.97
2019-02-26T07:25:44.112Z,101479.46
2019-02-26T07:28:12.837Z,101472.75
2019-02-26T07:30:42.865Z,101467.58
2019-02-26T07:33:12.259Z,101463.25
2019-02-26T07:35:40.836Z,101479.81
2019-02-26T07:38:08.647Z,101482.53
2019-02-26T07:40:38.483Z,101493.72
2019-02-26T07:43:09.094Z,101492.69
2019-02-26T07:45:35.976Z,101484.87
2019-02-26T07:48:03.991Z,101479.89
2019-02-26T07:50:37.489Z,101478.38
2019-02-26T07:53:01.815Z,101486.56
2019-02-26T07:55:30.803Z,101481.58
2019-02-26T07:57:59.407Z,101483.82
2019-02-26T08:00:27.280Z,101488.42
2019-02-26T08:02:57.796Z,101488.98
2019-02-26T08:05:26.810Z,101499.13
2019-02-26T08:07:56.541Z,101505.44
2019-02-26T08:10:24.287Z,101504.58
2019-02-26T08:12:52.120Z,101517.48
2019-02-26T08:15:20.066Z,101520.48
2019-02-26T08:17:50.209Z,101522.56
2019-02-26T08:20:17.652Z,101502.23
2019-02-26T08:22:46.413Z,101496.51
2019-02-26T08:25:14.371Z,101484.23
2019-02-26T08:27:42.188Z,101498.58
2019-02-26T08:30:14.624Z,101506.95
2019-02-26T08:32:42.497Z,101517.50
2019-02-26T08:35:20.242Z,101520.97
2019-02-26T08:37:48.049Z,101528.19
2019-02-26T08:40:15.908Z,101529.65
2019-02-26T08:42:43.714Z,101522.14
2019-02-26T08:45:17.814Z,101538.87
2019-02-26T08:47:46.493Z,101526.43
2019-02-26T08:50:15.048Z,101512.66
2019-02-26T08:52:44.867Z,101505.48
2019-02-26T08:55:15.554Z,101510.39
2019-02-26T08:57:43.145Z,101501.32
2019-02-26T09:00:16.118Z,101504.16
2019-02-26T09:02:46.018Z,101510.06
2019-02-26T09:05:14.062Z,101511.30
2019-02-26T09:07:45.054Z,101510.14
2019-02-26T09:10:14.928Z,101505.23
2019-02-26T09:12:44.143Z,101510.02
2019-02-26T09:15:15.733Z,101521.61
2019-02-26T09:17:43.421Z,101518.77
2019-02-26T09:20:14.711Z,101526.89
2019-02-26T09:22:45.725Z,101527.70
2019-02-26T09:25:13.098Z,101524.94
2019-02-26T09:27:43.071Z,101535.20
2019-02-26T09:30:14.070Z,101528.34
2019-02-26T09:32:44.865Z,101526.23
2019-02-26T09:35:13.576Z,101524.91
2019-02-26T09:37:42.889Z,101529.44
2019-02-26T09:40:12.641Z,101528.05
2019-02-26T09:42:41.058Z,101529.97
2019-02-26T09:45:11.586Z,101533.34
2019-02-26T09:47:39.369Z,101534.52
2019-02-26T09:50:10.440Z,101547.30
2019-02-26T09:52:40.472Z,101549.73
2019-02-26T09:55:10.635Z,101547.04
2019-02-26T09:57:38.559Z,101543.73
2019-02-26T10:00:10.384Z,101546.67
2019-02-26T10:02:40.040Z,101549.96
2019-02-26T10:05:08.802Z,101553.34
2019-02-26T10:07:38.736Z,101546.09
2019-02-26T10:10:11.546Z,101537.98
2019-02-26T10:12:39.418Z,101533.55
2019-02-26T10:15:08.202Z,101533.11
2019-02-26T10:17:39.640Z,101538.91
2019-02-26T10:20:09.446Z,101538.69
2019-02-26T10:22:38.663Z,101535.53
2019-02-26T10:25:07.894Z,101538.55
2019-02-26T10:27:36.658Z,101529.84
2019-02-26T10:30:10.632Z,101511.95
2019-02-26T10:32:38.055Z,101508.25
2019-02-26T10:35:09.314Z,101504.06
2019-02-26T10:37:45.796Z,101506.52
2019-02-26T10:40:14.576Z,101506.69
2019-02-26T10:42:43.800Z,101512.70
2019-02-26T10:45:12.852Z,101514.06
2019-02-26T10:47:40.786Z,101513.98
2019-02-26T10:50:13.060Z,101510.39
2019-02-26T10:52:41.039Z,101513.91
2019-02-26T10:55:12.678Z,101507.03
2019-02-26T10:57:39.364Z,101517.77
2019-02-26T11:00:11.935Z,101504.73
2019-02-26T11:02:40.716Z,101496.66
2019-02-26T11:05:11.373Z,101489.20
2019-02-26T11:07:40.174Z,101479.45
2019-02-26T11:10:11.854Z,101475.56
2019-02-26T11:12:41.027Z,101487.15
2019-02-26T11:15:09.404Z,101474.46
2019-02-26T11:17:37.400Z,101474.33
2019-02-26T11:20:07.737Z,101483.12
2019-02-26T11:22:36.015Z,101483.87
2019-02-26T11:25:04.520Z,101474.58
2019-02-26T11:27:35.238Z,101473.97
2019-02-26T11:30:05.079Z,101474.33
2019-02-26T11:32:37.344Z,101475.27
2019-02-26T11:35:02.838Z,101476.30
2019-02-26T11:37:32.071Z,101471.40
2019-02-26T11:40:02.462Z,101464.64
2019-02-26T11:42:29.683Z,101471.59
2019-02-26T11:44:57.486Z,101464.34
2019-02-26T11:47:25.339Z,101454.52
2019-02-26T11:49:53.147Z,101456.20
2019-02-26T11:52:20.889Z,101446.70
2019-02-26T11:54:49.059Z,101453.50
2019-02-26T11:57:17.827Z,101448.14
2019-02-26T11:59:46.628Z,101447.63
2019-02-26T12:02:14.361Z,101445.95
2019-02-26T12:04:42.422Z,101451.14
2019-02-26T12:07:10.244Z,101444.38
2019-02-26T12:09:40.772Z,101444.38
2019-02-26T12:12:11.640Z,101459.67
2019-02-26T12:14:41.168Z,101457.52
2019-02-26T12:17:09.228Z,101454.55
2019-02-26T12:19:37.264Z,101445.59
2019-02-26T12:22:06.038Z,101450.80
2019-02-26T12:24:36.070Z,101451.06
2019-02-26T12:27:03.940Z,101451.06
2019-02-26T12:29:31.691Z,101435.05
2019-02-26T12:32:01.208Z,101435.05
2019-02-26T12:34:29.146Z,101427.08
2019-02-26T12:37:02.052Z,101426.95
2019-02-26T12:39:29.225Z,101424.27
2019-02-26T12:41:56.880Z,101426.06
2019-02-26T12:44:24.643Z,101416.86
2019-02-26T12:46:53.740Z,101414.55
2019-02-26T12:49:22.561Z,101406.79
2019-02-26T12:51:53.753Z,101403.06
2019-02-26T12:54:20.204Z,101405.87
2019-02-26T12:56:49.025Z,101405.87
2019-02-26T12:59:17.654Z,101403.06
2019-02-26T13:01:46.809Z,101397.38
2019-02-26T13:04:19.601Z,101395.31
2019-02-26T13:06:47.717Z,101395.31
2019-02-26T13:09:14.790Z,101391.63
2019-02-26T13:12:00.198Z,101372.94
2019-02-26T13:14:21.427Z,101359.23
2019-02-26T13:16:52.225Z,101359.23
2019-02-26T13:19:22.029Z,101371.81
2019-02-26T13:21:51.752Z,101371.81
2019-02-26T13:24:21.392Z,101353.73
2019-02-26T13:26:51.001Z,101355.27
2019-02-26T13:29:18.038Z,101361.94
2019-02-26T13:31:56.061Z,101361.94
2019-02-26T13:34:15.481Z,101355.29
2019-02-26T13:36:47.529Z,101359.09
2019-02-26T13:39:22.026Z,101370.34
2019-02-26T13:41:42.906Z,101370.34
2019-02-26T13:44:11.042Z,101374.34
2019-02-26T13:46:39.051Z,101369.80
2019-02-26T13:49:07.008Z,101360.95
2019-02-26T13:51:34.927Z,101347.03
2019-02-26T13:54:02.798Z,101347.03
2019-02-26T13:56:30.576Z,101365.69
2019-02-26T13:58:58.334Z,101369.09
2019-02-26T14:01:26.344Z,101395.03
2019-02-26T14:03:54.922Z,101384.20
2019-02-26T14:06:22.743Z,101384.20
2019-02-26T14:08:50.901Z,101376.48
2019-02-26T14:11:18.680Z,101376.98
2019-02-26T14:13:46.538Z,101369.22
2019-02-26T14:16:17.186Z,101376.60
2019-02-26T14:18:45.124Z,101376.44
2019-02-26T14:21:13.250Z,101459.02
2019-02-26T14:23:42.337Z,101377.20
2019-02-26T14:26:10.132Z,101377.20
2019-02-26T14:28:38.967Z,101382.12
2019-02-26T14:31:06.799Z,101385.69
2019-02-26T14:33:35.398Z,101380.15
2019-02-26T14:36:04.158Z,101396.94
2019-02-26T14:38:31.953Z,101396.94
2019-02-26T14:41:00.159Z,101395.91
2019-02-26T14:43:28.817Z,101396.34
2019-02-26T14:45:56.983Z,101395.56
2019-02-26T14:48:24.873Z,101403.95
2019-02-26T14:50:52.617Z,101414.95
2019-02-26T14:53:20.535Z,101411.64
2019-02-26T14:55:48.401Z,101411.64
2019-02-26T14:58:17.509Z,101421.67
2019-02-26T15:00:45.466Z,101423.77
2019-02-26T15:03:13.332Z,101424.16
2019-02-26T15:05:41.113Z,101413.78
2019-02-26T15:08:09.685Z,101398.42
2019-02-26T15:10:37.777Z,101398.42
2019-02-26T15:13:05.679Z,101423.48
2019-02-26T15:15:54.093Z,101422.97
2019-02-26T15:18:22.001Z,101433.59
2019-02-26T15:20:49.853Z,101440.54
2019-02-26T15:23:17.766Z,101440.54
2019-02-26T15:25:45.728Z,101436.52
2019-02-26T15:28:13.595Z,101442.74
2019-02-26T15:30:41.518Z,101440.55
2019-02-26T15:33:11.378Z,101444.03
2019-02-26T15:35:39.381Z,101445.87
2019-02-26T15:38:07.178Z,101445.87
2019-02-26T15:40:34.908Z,101439.12
2019-02-26T15:43:02.789Z,101443.77
2019-02-26T15:45:30.974Z,101460.23
2019-02-26T15:47:58.998Z,101455.89
2019-02-26T15:50:26.942Z,101455.89
2019-02-26T15:52:55.357Z,101455.03
2019-02-26T15:55:25.943Z,101465.18
2019-02-26T15:57:53.252Z,101465.34
2019-02-26T16:00:22.996Z,101470.27
2019-02-26T16:02:51.407Z,101463.16
2019-02-26T16:05:20.541Z,101462.44
2019-02-26T16:07:48.438Z,101462.44
2019-02-26T16:10:16.372Z,101455.67
2019-02-26T16:12:44.193Z,101453.89
2019-02-26T16:15:12.246Z,101458.83
2019-02-26T16:17:40.040Z,101459.80
2019-02-26T16:20:10.880Z,101462.56
2019-02-26T16:22:38.703Z,101464.25
2019-02-26T16:25:08.187Z,101460.52
2019-02-26T16:27:37.827Z,101469.17
2019-02-26T16:30:10.558Z,101469.05
2019-02-26T16:32:39.570Z,101469.05
2019-02-26T16:35:08.234Z,101470.72
2019-02-26T16:37:35.987Z,101469.50
2019-02-26T16:40:04.353Z,101472.52
2019-02-26T16:42:32.089Z,101478.44
2019-02-26T16:45:01.321Z,101477.34
2019-02-26T16:47:29.439Z,101476.62
2019-02-26T16:49:58.641Z,101476.72
2019-02-26T16:52:28.852Z,101478.07
2019-02-26T16:54:57.236Z,101482.05
2019-02-26T16:57:25.759Z,101482.38
2019-02-26T16:59:54.993Z,101489.57
2019-02-26T17:02:22.953Z,101482.13
2019-02-26T17:04:50.744Z,101482.82
2019-02-26T17:07:18.588Z,101489.30
2019-02-26T17:09:46.494Z,101493.10
2019-02-26T17:12:14.237Z,101494.79
2019-02-26T17:14:42.665Z,101495.25
2019-02-26T17:17:10.521Z,101499.95
2019-02-26T17:19:38.368Z,101510.09
2019-02-26T17:22:06.192Z,101507.89
2019-02-26T17:24:34.015Z,101514.27
2019-02-26T17:27:03.484Z,101509.79
2019-02-26T17:29:31.620Z,101519.88
2019-02-26T17:32:03.403Z,101520.16
2019-02-26T17:34:29.176Z,101520.30
2019-02-26T17:36:56.941Z,101510.31
2019-02-26T17:39:25.982Z,101517.30
2019-02-26T17:41:54.809Z,101517.36
2019-02-26T17:44:22.712Z,101517.14
2019-02-26T17:46:50.454Z,101508.02
2019-02-26T17:49:18.256Z,101509.75
2019-02-26T17:51:46.097Z,101508.33
2019-02-26T17:54:15.221Z,101504.87
2019-02-26T17:56:43.667Z,101507.27
2019-02-26T17:59:11.685Z,101515.28
2019-02-26T18:01:40.133Z,101527.06
2019-02-26T18:04:08.123Z,101527.42
2019-02-26T18:06:35.955Z,101524.78
2019-02-26T18:09:05.133Z,101526.30
2019-02-26T18:11:32.977Z,101533.44
2019-02-26T18:14:00.899Z,101529.31
2019-02-26T18:16:28.745Z,101524.83
2019-02-26T18:18:56.563Z,101521.97
2019-02-26T18:21:24.537Z,101530.77
2019-02-26T18:23:52.372Z,101529.88
2019-02-26T18:26:20.278Z,101530.17
2019-02-26T18:28:48.426Z,101526.66
2019-02-26T18:31:16.292Z,101521.53
2019-02-26T18:33:44.064Z,101532.45
2019-02-26T18:36:11.989Z,101533.31
2019-02-26T18:38:39.771Z,101536.48
2019-02-26T18:41:07.576Z,101545.41
2019-02-26T18:43:35.308Z,101540.53
2019-02-26T18:46:03.330Z,101544.28
2019-02-26T18:48:31.149Z,101544.08
2019-02-26T18:50:59.681Z,101539.95
2019-02-26T18:53:28.633Z,101548.46
2019-02-26T18:55:56.547Z,101545.61
2019-02-26T18:58:24.596Z,101548.87
2019-02-26T19:00:53.821Z,101543.02
2019-02-26T19:03:21.578Z,101546.02
2019-02-26T19:05:53.806Z,101550.92
2019-02-26T19:08:19.654Z,101552.63
2019-02-26T19:10:47.698Z,101561.36
2019-02-26T19:13:15.649Z,101547.17
2019-02-26T19:15:47.586Z,101547.34
2019-02-26T19:18:13.187Z,101544.62
2019-02-26T19:20:41.097Z,101539.09
2019-02-26T19:23:08.941Z,101549.06
2019-02-26T19:25:36.771Z,101557.93
2019-02-26T19:28:16.101Z,101552.51
2019-02-26T19:30:44.073Z,101553.34
2019-02-26T19:33:11.833Z,101559.99
2019-02-26T19:35:40.561Z,101566.19
2019-02-26T19:38:08.433Z,101560.39
2019-02-26T19:40:38.993Z,101561.95
2019-02-26T19:43:07.531Z,101559.70
2019-02-26T19:45:35.456Z,101557.91
2019-02-26T19:48:03.312Z,101555.89
2019-02-26T19:50:31.412Z,101564.00
2019-02-26T19:53:02.444Z,101567.94
2019-02-26T19:55:32.120Z,101567.91
2019-02-26T19:58:02.917Z,101566.02
2019-02-26T20:00:31.919Z,101574.88
2019-02-26T20:02:59.688Z,101576.00
2019-02-26T20:05:27.686Z,101580.91
2019-02-26T20:07:56.355Z,101566.39
2019-02-26T20:10:24.477Z,101575.05
2019-02-26T20:12:54.031Z,101574.84
2019-02-26T20:15:22.500Z,101560.91
2019-02-26T20:17:50.257Z,101559.96
2019-02-26T20:20:18.332Z,101561.86
2019-02-26T20:22:46.263Z,101560.05
2019-02-26T20:25:15.168Z,101564.20
2019-02-26T20:27:44.083Z,101564.33
2019-02-26T20:30:14.156Z,101569.14
2019-02-26T20:32:41.939Z,101570.55
2019-02-26T20:35:11.965Z,101567.73
2019-02-26T20:37:41.289Z,101562.09
2019-02-26T20:40:15.775Z,101549.38
2019-02-26T20:42:42.029Z,101546.83
2019-02-26T20:45:11.485Z,101551.30
2019-02-26T20:47:39.983Z,101564.20
2019-02-26T20:50:08.129Z,101559.13
2019-02-26T20:52:36.025Z,101563.40
2019-02-26T20:55:04.012Z,101564.80
2019-02-26T20:57:31.819Z,101571.19
2019-02-26T20:59:59.687Z,101564.22
2019-02-26T21:02:27.493Z,101561.12
2019-02-26T21:04:55.263Z,101562.52
2019-02-26T21:07:24.550Z,101572.44
2019-02-26T21:09:52.841Z,101573.39
2019-02-26T21:12:20.641Z,101572.06
2019-02-26T21:14:48.419Z,101573.02
2019-02-26T21:17:16.296Z,101576.50
2019-02-26T21:19:44.053Z,101576.23
2019-02-26T21:22:12.035Z,101577.26
2019-02-26T21:24:39.766Z,101574.07
2019-02-26T21:27:07.689Z,101578.52
2019-02-26T21:29:38.700Z,101575.78
2019-02-26T21:32:07.686Z,101592.16
2019-02-26T21:34:35.584Z,101586.81
2019-02-26T21:37:03.575Z,101592.92
2019-02-26T21:39:31.413Z,101582.95
2019-02-26T21:41:59.198Z,101587.09
2019-02-26T21:44:26.937Z,101592.47
2019-02-26T21:46:56.067Z,101593.11
2019-02-26T21:49:24.554Z,101589.73
2019-02-26T21:51:52.359Z,101601.29
2019-02-26T21:54:20.089Z,101607.98
2019-02-26T21:56:48.960Z,101601.48
2019-02-26T21:59:17.378Z,101600.91
2019-02-26T22:01:46.122Z,101600.91
2019-02-26T22:04:14.364Z,101600.08
2019-02-26T22:06:44.445Z,101597.15
2019-02-26T22:09:11.900Z,101591.98
2019-02-26T22:11:39.721Z,101586.72
2019-02-26T22:14:07.791Z,101589.17
2019-02-26T22:16:35.600Z,101599.32
2019-02-26T22:19:04.799Z,101594.43
2019-02-26T22:21:33.243Z,101595.37
2019-02-26T22:24:01.023Z,101591.98
2019-02-26T22:26:28.884Z,101592.55
2019-02-26T22:28:56.748Z,101590.37
2019-02-26T22:31:28.709Z,101590.84
2019-02-26T22:33:57.554Z,101588.28
2019-02-26T22:36:25.417Z,101589.70
2019-02-26T22:38:53.208Z,101598.44
2019-02-26T22:41:20.942Z,101595.92
2019-02-26T22:43:48.751Z,101595.98
2019-02-26T22:46:16.573Z,101596.86
2019-02-26T22:48:46.924Z,101600.61
2019-02-26T22:51:14.338Z,101602.48
2019-02-26T22:53:42.120Z,101600.03
2019-02-26T22:56:09.875Z,101599.84
2019-02-26T22:58:37.679Z,101598.90
2019-02-26T23:01:16.836Z,101601.34
2019-02-26T23:03:45.900Z,101601.14
2019-02-26T23:06:14.608Z,101606.48
2019-02-26T23:08:44.789Z,101625.02
2019-02-26T23:11:14.328Z,101627.72
2019-02-26T23:13:42.724Z,101620.86
2019-02-26T23:16:10.687Z,101619.06
2019-02-26T23:18:39.402Z,101623.95
2019-02-26T23:21:08.096Z,101618.61
2019-02-26T23:23:36.458Z,101619.73
2019-02-26T23:26:08.651Z,101618.97
2019-02-26T23:28:34.181Z,101623.47
2019-02-26T23:31:02.061Z,101619.11
2019-02-26T23:33:31.672Z,101622.86
2019-02-26T23:36:00.626Z,101635.19
2019-02-26T23:38:28.519Z,101637.13
2019-02-26T23:40:58.166Z,101632.05
2019-02-26T23:43:26.479Z,101627.47
2019-02-26T23:45:56.849Z,101621.52
2019-02-26T23:48:24.331Z,101617.92
2019-02-26T23:50:52.148Z,101611.91
2019-02-26T23:53:20.170Z,101623.16
2019-02-26T23:55:48.127Z,101621.18
2019-02-26T23:58:16.982Z,101619.17
